createdAt,value
2023-12-08T00:00:08.267Z,47.17
2023-12-08T00:02:38.104Z,56.90
2023-12-08T00:05:07.373Z,52.93
2023-12-08T00:07:35.779Z,51.10
2023-12-08T00:10:04.500Z,49.17
2023-12-08T00:12:31.757Z,50.50
2023-12-08T00:15:01.028Z,51.63
2023-12-08T00:17:30.342Z,51.97
2023-12-08T00:20:00.117Z,52.60
2023-12-08T00:22:29.411Z,55.23
2023-12-08T00:24:58.066Z,52.47
2023-12-08T00:27:27.105Z,49.13
2023-12-08T00:29:55.698Z,50.57
2023-12-08T00:32:24.009Z,57.90
2023-12-08T00:34:52.890Z,47.30
2023-12-08T00:37:23.362Z,46.90
2023-12-08T00:39:52.114Z,50.00
2023-12-08T00:42:20.496Z,51.07
2023-12-08T00:44:49.017Z,45.83
2023-12-08T00:47:17.829Z,47.10
2023-12-08T00:49:46.495Z,49.33
2023-12-08T00:52:14.926Z,48.33
2023-12-08T00:54:44.652Z,53.00
2023-12-08T00:57:13.018Z,47.53
2023-12-08T00:59:41.511Z,48.70
2023-12-08T01:02:10.166Z,48.83
2023-12-08T01:04:38.431Z,52.50
2023-12-08T01:07:06.893Z,47.10
2023-12-08T01:09:35.279Z,48.80
2023-12-08T01:12:05.909Z,53.20
2023-12-08T01:14:34.494Z,49.67
2023-12-08T01:17:02.957Z,48.87
2023-12-08T01:19:31.313Z,51.30
2023-12-08T01:21:59.719Z,45.73
2023-12-08T01:24:28.882Z,42.17
2023-12-08T01:26:57.358Z,49.87
2023-12-08T01:29:27.422Z,47.03
2023-12-08T01:31:56.577Z,47.70
2023-12-08T01:34:24.965Z,48.93
2023-12-08T01:36:53.813Z,46.93
2023-12-08T01:39:22.296Z,44.77
2023-12-08T01:41:52.777Z,48.27
2023-12-08T01:44:21.139Z,50.27
2023-12-08T01:46:52.074Z,46.43
2023-12-08T01:49:21.220Z,45.00
2023-12-08T01:51:50.414Z,50.17
2023-12-08T01:54:19.024Z,43.00
2023-12-08T01:56:47.660Z,41.07
2023-12-08T01:59:17.162Z,40.60
2023-12-08T02:01:46.091Z,42.80
2023-12-08T02:04:16.486Z,45.13
2023-12-08T02:06:44.953Z,42.07
2023-12-08T02:09:18.962Z,42.13
2023-12-08T02:11:47.446Z,42.53
2023-12-08T02:14:17.201Z,42.27
2023-12-08T02:16:55.443Z,47.33
2023-12-08T02:19:25.694Z,47.90
2023-12-08T02:21:55.436Z,42.07
2023-12-08T02:24:25.251Z,47.50
2023-12-08T02:26:53.941Z,45.83
2023-12-08T02:29:22.563Z,44.40
2023-12-08T02:32:09.790Z,41.93
2023-12-08T02:34:39.111Z,42.23
2023-12-08T02:37:09.889Z,43.27
2023-12-08T02:39:41.110Z,42.83
2023-12-08T02:42:09.980Z,43.63
2023-12-08T02:44:38.528Z,43.27
2023-12-08T02:47:07.557Z,41.30
2023-12-08T02:49:36.829Z,41.57
2023-12-08T02:52:05.750Z,42.50
2023-12-08T02:54:34.406Z,43.87
2023-12-08T02:57:04.284Z,42.67
2023-12-08T02:59:32.794Z,43.33
2023-12-08T03:02:01.376Z,44.07
2023-12-08T03:04:30.000Z,41.33
2023-12-08T03:06:58.515Z,41.83
2023-12-08T03:09:27.674Z,44.70
2023-12-08T03:11:56.425Z,46.60
2023-12-08T03:14:26.362Z,44.53
2023-12-08T03:16:54.829Z,47.53
2023-12-08T03:19:23.282Z,45.80
2023-12-08T03:21:50.846Z,47.10
2023-12-08T03:24:19.519Z,44.23
2023-12-08T03:26:49.014Z,42.33
2023-12-08T03:29:17.540Z,41.83
2023-12-08T03:31:47.188Z,42.60
2023-12-08T03:34:15.728Z,51.40
2023-12-08T03:36:44.334Z,44.07
2023-12-08T03:39:12.633Z,47.50
2023-12-08T03:41:41.152Z,44.43
2023-12-08T03:44:09.785Z,47.27
2023-12-08T03:46:38.341Z,46.70
2023-12-08T03:49:08.385Z,49.03
2023-12-08T03:51:36.917Z,48.53
2023-12-08T03:54:05.650Z,45.87
2023-12-08T03:56:34.214Z,48.93
2023-12-08T03:59:02.523Z,49.43
2023-12-08T04:01:31.237Z,49.27
2023-12-08T04:03:59.673Z,49.80
2023-12-08T04:06:29.528Z,52.13
2023-12-08T04:08:57.945Z,52.83
2023-12-08T04:11:26.677Z,46.70
2023-12-08T04:13:55.199Z,50.97
2023-12-08T04:16:23.851Z,52.77
2023-12-08T04:18:52.225Z,52.20
2023-12-08T04:21:21.053Z,56.00
2023-12-08T04:23:50.669Z,49.43
2023-12-08T04:26:26.660Z,49.77
2023-12-08T04:28:55.147Z,52.40
2023-12-08T04:31:23.977Z,51.50
2023-12-08T04:33:53.906Z,53.60
2023-12-08T04:36:22.550Z,54.30
2023-12-08T04:38:52.303Z,51.50
2023-12-08T04:41:20.847Z,55.03
2023-12-08T04:43:49.731Z,59.93
2023-12-08T04:46:19.413Z,59.93
2023-12-08T04:48:48.389Z,51.83
2023-12-08T04:51:16.954Z,55.80
2023-12-08T04:53:45.398Z,55.73
2023-12-08T04:56:15.217Z,50.77
2023-12-08T04:58:43.694Z,53.13
2023-12-08T05:01:14.662Z,51.03
2023-12-08T05:03:43.249Z,55.17
2023-12-08T05:06:11.833Z,55.53
2023-12-08T05:08:40.493Z,55.90
2023-12-08T05:11:09.865Z,53.33
2023-12-08T05:13:39.631Z,52.77
2023-12-08T05:16:12.468Z,49.87
2023-12-08T05:18:42.323Z,53.43
2023-12-08T05:21:12.017Z,51.23
2023-12-08T05:23:40.499Z,53.07
2023-12-08T05:26:09.833Z,53.77
2023-12-08T05:28:39.685Z,53.13
2023-12-08T05:31:08.497Z,54.93
2023-12-08T05:33:37.103Z,55.43
2023-12-08T05:36:07.048Z,53.63
2023-12-08T05:38:35.685Z,54.70
2023-12-08T05:41:04.701Z,54.30
2023-12-08T05:43:33.354Z,53.70
2023-12-08T05:46:03.490Z,59.73
2023-12-08T05:48:31.965Z,58.17
2023-12-08T05:51:00.552Z,61.00
2023-12-08T05:53:29.029Z,53.43
2023-12-08T05:55:57.867Z,62.73
2023-12-08T05:58:26.433Z,61.83
2023-12-08T06:00:55.679Z,56.90
2023-12-08T06:03:25.745Z,64.40
2023-12-08T06:05:54.224Z,61.27
2023-12-08T06:08:22.909Z,58.40
2023-12-08T06:10:51.301Z,62.07
2023-12-08T06:13:19.771Z,64.33
2023-12-08T06:15:48.365Z,63.17
2023-12-08T06:18:16.763Z,56.60
2023-12-08T06:20:46.683Z,58.43
2023-12-08T06:23:15.400Z,60.73
2023-12-08T06:25:43.836Z,59.30
2023-12-08T06:28:12.376Z,69.70
2023-12-08T06:30:40.914Z,62.27
2023-12-08T06:33:09.528Z,62.43
2023-12-08T06:35:38.387Z,66.07
2023-12-08T06:38:08.244Z,62.53
2023-12-08T06:40:37.093Z,67.40
2023-12-08T06:43:05.587Z,65.33
2023-12-08T06:45:34.033Z,69.90
2023-12-08T06:48:02.606Z,60.93
2023-12-08T06:50:31.886Z,66.60
2023-12-08T06:53:00.698Z,62.33
2023-12-08T06:55:30.976Z,68.87
2023-12-08T06:57:59.349Z,63.43
2023-12-08T07:00:28.023Z,61.17
2023-12-08T07:02:56.395Z,65.17
2023-12-08T07:05:24.893Z,62.73
2023-12-08T07:07:53.914Z,61.47
2023-12-08T07:10:22.225Z,64.93
2023-12-08T07:12:52.087Z,64.67
2023-12-08T07:15:21.750Z,65.53
2023-12-08T07:17:51.164Z,63.83
2023-12-08T07:20:19.782Z,68.37
2023-12-08T07:22:48.269Z,67.90
2023-12-08T07:25:17.382Z,63.77
2023-12-08T07:27:46.056Z,63.83
2023-12-08T07:30:16.232Z,67.47
2023-12-08T07:32:45.010Z,65.00
2023-12-08T07:35:13.400Z,64.43
2023-12-08T07:37:42.521Z,69.40
2023-12-08T07:40:12.692Z,65.40
2023-12-08T07:42:42.033Z,70.30
2023-12-08T07:45:11.640Z,64.80
2023-12-08T07:47:41.681Z,66.00
2023-12-08T07:50:10.364Z,77.23
2023-12-08T07:52:39.577Z,63.80
2023-12-08T07:55:08.675Z,66.53
2023-12-08T07:57:37.370Z,72.00
2023-12-08T08:00:07.731Z,71.67
2023-12-08T08:02:36.220Z,71.90
2023-12-08T08:05:06.925Z,68.07
2023-12-08T08:07:35.481Z,67.60
2023-12-08T08:10:04.327Z,68.50
2023-12-08T08:12:34.908Z,66.57
2023-12-08T08:15:03.616Z,73.97
2023-12-08T08:17:32.406Z,66.80
2023-12-08T08:20:00.815Z,63.83
2023-12-08T08:22:32.967Z,69.80
2023-12-08T08:25:02.864Z,65.50
2023-12-08T08:27:33.346Z,67.00
2023-12-08T08:30:01.890Z,68.27
2023-12-08T08:32:30.564Z,79.03
2023-12-08T08:35:00.025Z,68.00
2023-12-08T08:37:30.923Z,66.77
2023-12-08T08:39:59.790Z,69.60
2023-12-08T08:42:28.731Z,67.17
2023-12-08T08:44:57.357Z,76.23
2023-12-08T08:47:26.255Z,69.67
2023-12-08T08:49:55.247Z,61.73
2023-12-08T08:52:23.811Z,69.73
2023-12-08T08:54:53.914Z,63.67
2023-12-08T08:57:22.713Z,72.47
2023-12-08T08:59:51.788Z,71.57
2023-12-08T09:02:20.274Z,63.17
2023-12-08T09:04:49.117Z,66.57
2023-12-08T09:07:18.563Z,66.97
2023-12-08T09:09:48.032Z,70.23
2023-12-08T09:12:18.041Z,70.03
2023-12-08T09:14:46.707Z,68.47
2023-12-08T09:17:15.260Z,70.07
2023-12-08T09:19:43.961Z,68.77
2023-12-08T09:22:12.413Z,74.70
2023-12-08T09:24:40.968Z,67.27
2023-12-08T09:27:09.655Z,68.73
2023-12-08T09:29:39.496Z,71.37
2023-12-08T09:32:08.642Z,71.83
2023-12-08T09:34:37.247Z,66.03
2023-12-08T09:37:26.350Z,72.07
2023-12-08T09:39:54.557Z,71.77
2023-12-08T09:42:29.797Z,72.20
2023-12-08T09:44:59.811Z,67.73
2023-12-08T09:47:29.502Z,67.43
2023-12-08T09:49:58.344Z,67.60
2023-12-08T09:52:28.386Z,66.23
2023-12-08T09:54:57.320Z,73.97
2023-12-08T09:57:27.858Z,75.07
2023-12-08T09:59:57.953Z,70.63
2023-12-08T10:02:28.221Z,74.00
2023-12-08T10:04:59.044Z,66.00
2023-12-08T10:07:33.215Z,68.43
2023-12-08T10:10:03.251Z,73.30
2023-12-08T10:12:31.608Z,75.27
2023-12-08T10:15:02.096Z,74.80
2023-12-08T10:17:32.010Z,69.33
2023-12-08T10:20:11.185Z,76.03
2023-12-08T10:22:49.136Z,70.37
2023-12-08T10:25:19.108Z,68.03
2023-12-08T10:27:49.120Z,71.97
2023-12-08T10:30:18.761Z,70.87
2023-12-08T10:32:49.465Z,71.33
2023-12-08T10:35:18.465Z,74.27
2023-12-08T10:37:47.643Z,73.80
2023-12-08T10:40:20.313Z,76.40
2023-12-08T10:42:50.188Z,76.67
2023-12-08T10:45:19.425Z,68.80
2023-12-08T10:47:51.968Z,79.13
2023-12-08T10:50:22.637Z,76.03
2023-12-08T10:52:53.093Z,74.30
2023-12-08T10:55:21.752Z,78.63
2023-12-08T10:57:57.993Z,75.63
2023-12-08T11:00:27.757Z,78.43
2023-12-08T11:02:59.423Z,78.13
2023-12-08T11:05:32.961Z,90.23
2023-12-08T11:08:05.231Z,77.10
2023-12-08T11:10:39.101Z,82.37
2023-12-08T11:13:14.642Z,81.30
2023-12-08T11:16:01.554Z,79.53
2023-12-08T11:18:32.785Z,74.63
2023-12-08T11:21:03.380Z,82.57
2023-12-08T11:23:32.412Z,82.37
2023-12-08T11:26:08.234Z,85.47
2023-12-08T11:28:43.565Z,84.43
2023-12-08T11:31:20.782Z,84.87
2023-12-08T11:33:59.032Z,75.30
2023-12-08T11:36:29.939Z,79.07
2023-12-08T11:38:58.494Z,76.93
2023-12-08T11:41:30.879Z,78.77
2023-12-08T11:44:09.335Z,83.73
2023-12-08T11:46:38.333Z,84.60
2023-12-08T11:49:08.463Z,79.60
2023-12-08T11:51:39.232Z,86.23
2023-12-08T11:54:09.210Z,84.67
2023-12-08T11:56:42.951Z,83.87
2023-12-08T11:59:15.335Z,85.57
2023-12-08T12:01:44.995Z,83.77
2023-12-08T12:04:14.856Z,78.70
2023-12-08T12:06:46.515Z,81.33
2023-12-08T12:09:17.230Z,81.23
2023-12-08T12:11:48.748Z,85.77
2023-12-08T12:14:21.724Z,88.03
2023-12-08T12:16:50.321Z,79.70
2023-12-08T12:19:20.524Z,81.80
2023-12-08T12:21:49.450Z,84.90
2023-12-08T12:24:17.936Z,89.20
2023-12-08T12:26:46.521Z,80.63
2023-12-08T12:29:16.324Z,85.43
2023-12-08T12:31:44.855Z,87.10
2023-12-08T12:34:13.458Z,84.13
2023-12-08T12:36:43.654Z,85.77
2023-12-08T12:39:12.997Z,95.27
2023-12-08T12:41:41.878Z,90.53
2023-12-08T12:44:10.318Z,94.20
2023-12-08T12:46:43.682Z,94.90
2023-12-08T12:49:16.863Z,90.17
2023-12-08T12:51:47.044Z,89.43
2023-12-08T12:54:15.989Z,94.57
2023-12-08T12:56:51.972Z,90.70
2023-12-08T12:59:20.509Z,97.73
2023-12-08T13:01:49.845Z,86.60
2023-12-08T13:04:18.395Z,92.70
2023-12-08T13:06:48.312Z,96.37
2023-12-08T13:09:27.956Z,92.77
2023-12-08T13:11:56.514Z,96.50
2023-12-08T13:14:25.277Z,93.27
2023-12-08T13:16:54.499Z,97.07
2023-12-08T13:19:23.315Z,97.90
2023-12-08T13:21:53.202Z,110.17
2023-12-08T13:24:21.664Z,98.87
2023-12-08T13:26:50.272Z,93.77
2023-12-08T13:29:18.914Z,98.03
2023-12-08T13:31:47.533Z,97.53
2023-12-08T13:34:15.973Z,100.70
2023-12-08T13:36:44.485Z,95.40
2023-12-08T13:39:14.279Z,95.73
2023-12-08T13:41:42.735Z,100.20
2023-12-08T13:44:11.425Z,98.47
2023-12-08T13:46:41.135Z,91.73
2023-12-08T13:49:09.852Z,95.60
2023-12-08T13:51:40.272Z,89.53
2023-12-08T13:54:09.922Z,89.50
2023-12-08T13:56:40.047Z,94.33
2023-12-08T13:59:08.834Z,98.07
2023-12-08T14:01:38.032Z,88.17
2023-12-08T14:04:07.048Z,88.10
2023-12-08T14:06:35.786Z,92.40
2023-12-08T14:09:04.301Z,95.97
2023-12-08T14:11:32.655Z,90.77
2023-12-08T14:14:02.483Z,87.87
2023-12-08T14:16:30.907Z,92.47
2023-12-08T14:18:59.425Z,85.87
2023-12-08T14:21:27.855Z,94.53
2023-12-08T14:23:56.366Z,92.23
2023-12-08T14:26:24.870Z,90.67
2023-12-08T14:28:53.143Z,91.83
2023-12-08T14:31:23.243Z,93.70
2023-12-08T14:33:53.113Z,89.77
2023-12-08T14:36:23.854Z,88.83
2023-12-08T14:38:52.445Z,92.90
2023-12-08T14:41:20.874Z,91.83
2023-12-08T14:43:49.712Z,88.10
2023-12-08T14:46:19.914Z,92.87
2023-12-08T14:48:51.222Z,93.97
2023-12-08T14:51:21.430Z,95.60
2023-12-08T14:53:50.433Z,93.10
2023-12-08T14:56:20.318Z,88.70
2023-12-08T14:58:49.044Z,92.13
2023-12-08T15:01:19.072Z,92.33
2023-12-08T15:03:49.574Z,94.30
2023-12-08T15:06:18.289Z,100.40
2023-12-08T15:08:46.847Z,95.73
2023-12-08T15:11:15.532Z,93.43
2023-12-08T15:13:44.296Z,90.23
2023-12-08T15:16:12.837Z,92.57
2023-12-08T15:18:42.013Z,98.90
2023-12-08T15:21:18.321Z,100.90
2023-12-08T15:23:47.930Z,101.30
2023-12-08T15:26:26.115Z,108.03
2023-12-08T15:28:54.481Z,102.43
2023-12-08T15:31:22.785Z,107.03
2023-12-08T15:33:51.334Z,104.60
2023-12-08T15:36:21.294Z,93.53
2023-12-08T15:38:49.716Z,100.73
2023-12-08T15:41:18.215Z,106.57
2023-12-08T15:43:46.646Z,102.23
2023-12-08T15:46:15.041Z,102.33
2023-12-08T15:48:43.624Z,109.17
2023-12-08T15:51:15.001Z,108.73
2023-12-08T15:53:46.188Z,109.20
2023-12-08T15:56:14.621Z,106.83
2023-12-08T15:58:43.114Z,116.83
2023-12-08T16:01:18.537Z,112.80
2023-12-08T16:03:47.049Z,120.10
2023-12-08T16:06:16.489Z,111.23
2023-12-08T16:08:46.531Z,115.60
2023-12-08T16:11:24.456Z,115.83
2023-12-08T16:13:53.103Z,118.13
2023-12-08T16:16:22.145Z,116.53
2023-12-08T16:18:52.248Z,132.93
2023-12-08T16:21:25.061Z,127.03
2023-12-08T16:23:55.443Z,125.07
2023-12-08T16:26:24.122Z,122.23
2023-12-08T16:28:52.825Z,122.03
2023-12-08T16:31:22.645Z,129.53
2023-12-08T16:33:51.291Z,126.47
2023-12-08T16:36:19.977Z,134.80
2023-12-08T16:38:49.121Z,131.80
2023-12-08T16:41:18.962Z,139.53
2023-12-08T16:43:47.290Z,139.97
2023-12-08T16:46:15.759Z,127.03
2023-12-08T16:48:44.476Z,134.97
2023-12-08T16:51:13.145Z,120.83
2023-12-08T16:53:41.512Z,117.60
2023-12-08T16:56:10.320Z,120.93
2023-12-08T16:58:40.282Z,115.53
2023-12-08T17:01:08.976Z,116.17
2023-12-08T17:03:37.519Z,103.27
2023-12-08T17:06:06.683Z,109.73
2023-12-08T17:08:35.509Z,107.17
2023-12-08T17:11:04.305Z,108.10
2023-12-08T17:13:32.741Z,109.47
2023-12-08T17:16:03.080Z,104.10
2023-12-08T17:18:31.491Z,108.73
2023-12-08T17:21:00.556Z,102.43
2023-12-08T17:23:29.204Z,99.53
2023-12-08T17:25:57.546Z,91.37
2023-12-08T17:28:25.797Z,99.97
2023-12-08T17:30:54.951Z,89.60
2023-12-08T17:33:24.801Z,87.80
2023-12-08T17:35:53.495Z,86.27
2023-12-08T17:38:22.417Z,97.27
2023-12-08T17:40:51.442Z,92.50
2023-12-08T17:43:19.842Z,97.10
2023-12-08T17:45:48.401Z,94.33
2023-12-08T17:48:17.298Z,95.57
2023-12-08T17:50:47.997Z,94.70
2023-12-08T17:53:16.618Z,94.93
2023-12-08T17:55:45.282Z,99.03
2023-12-08T17:58:14.318Z,90.03
2023-12-08T18:00:43.043Z,98.70
2023-12-08T18:03:11.751Z,91.90
2023-12-08T18:05:40.497Z,97.03
2023-12-08T18:08:12.133Z,97.17
2023-12-08T18:10:42.083Z,102.63
2023-12-08T18:13:11.001Z,107.13
2023-12-08T18:15:40.113Z,111.47
2023-12-08T18:18:09.201Z,101.23
2023-12-08T18:20:37.798Z,99.73
2023-12-08T18:23:06.375Z,103.20
2023-12-08T18:25:36.695Z,104.70
2023-12-08T18:28:26.827Z,96.67
2023-12-08T18:30:54.580Z,94.70
2023-12-08T18:33:23.326Z,92.20
2023-12-08T18:35:51.935Z,92.53
2023-12-08T18:38:20.501Z,88.63
2023-12-08T18:40:50.825Z,91.23
2023-12-08T18:43:19.601Z,91.63
2023-12-08T18:45:48.491Z,92.37
2023-12-08T18:48:17.625Z,87.00
2023-12-08T18:50:46.288Z,87.17
2023-12-08T18:53:15.118Z,88.43
2023-12-08T18:55:43.946Z,83.40
2023-12-08T18:58:14.389Z,83.10
2023-12-08T19:00:43.086Z,80.07
2023-12-08T19:03:11.580Z,75.47
2023-12-08T19:05:43.552Z,76.80
2023-12-08T19:08:12.149Z,71.10
2023-12-08T19:10:41.538Z,69.00
2023-12-08T19:13:10.268Z,67.30
2023-12-08T19:15:40.216Z,72.37
2023-12-08T19:18:09.884Z,67.87
2023-12-08T19:20:42.351Z,70.97
2023-12-08T19:23:11.423Z,69.40
2023-12-08T19:25:41.096Z,73.80
2023-12-08T19:28:11.389Z,72.17
2023-12-08T19:30:41.706Z,72.07
2023-12-08T19:33:10.807Z,84.57
2023-12-08T19:35:42.110Z,80.87
2023-12-08T19:38:11.907Z,86.20
2023-12-08T19:40:40.460Z,93.07
2023-12-08T19:43:09.150Z,91.80
2023-12-08T19:45:37.759Z,92.47
2023-12-08T19:48:08.258Z,95.53
2023-12-08T19:50:37.033Z,100.97
2023-12-08T19:53:05.717Z,101.67
2023-12-08T19:55:34.217Z,102.90
2023-12-08T19:58:02.971Z,103.50
2023-12-08T20:00:31.527Z,109.33
2023-12-08T20:03:00.574Z,103.00
2023-12-08T20:05:30.505Z,102.67
2023-12-08T20:07:59.050Z,103.77
2023-12-08T20:10:28.184Z,113.57
2023-12-08T20:12:56.615Z,108.03
2023-12-08T20:15:28.121Z,104.67
2023-12-08T20:17:57.775Z,97.47
2023-12-08T20:20:26.558Z,100.73
2023-12-08T20:22:57.806Z,99.57
2023-12-08T20:25:26.271Z,100.80
2023-12-08T20:27:55.496Z,104.70
2023-12-08T20:30:24.257Z,94.80
2023-12-08T20:32:55.308Z,101.00
2023-12-08T20:35:24.123Z,87.63
2023-12-08T20:37:52.718Z,95.37
2023-12-08T20:40:22.791Z,92.70
2023-12-08T20:42:51.267Z,100.80
2023-12-08T20:45:19.885Z,95.83
2023-12-08T20:47:48.634Z,81.43
2023-12-08T20:50:18.884Z,81.93
2023-12-08T20:52:47.794Z,79.47
2023-12-08T20:55:16.676Z,86.37
2023-12-08T20:57:47.014Z,85.33
2023-12-08T21:00:17.572Z,79.10
2023-12-08T21:02:46.440Z,66.67
2023-12-08T21:05:15.059Z,71.37
2023-12-08T21:07:44.676Z,69.53
2023-12-08T21:10:14.440Z,72.10
2023-12-08T21:12:43.018Z,72.47
2023-12-08T21:15:13.421Z,74.63
2023-12-08T21:17:42.213Z,72.03
2023-12-08T21:20:12.097Z,72.10
2023-12-08T21:22:41.806Z,70.33
2023-12-08T21:25:22.666Z,61.90
2023-12-08T21:27:52.675Z,62.47
2023-12-08T21:30:23.642Z,58.20
2023-12-08T21:32:53.798Z,62.40
2023-12-08T21:35:22.729Z,57.67
2023-12-08T21:37:51.290Z,58.30
2023-12-08T21:40:22.337Z,60.53
2023-12-08T21:42:53.107Z,58.87
2023-12-08T21:45:23.843Z,57.97
2023-12-08T21:47:52.713Z,51.60
2023-12-08T21:50:21.387Z,54.07
2023-12-08T21:52:53.209Z,51.73
2023-12-08T21:55:22.657Z,49.73
2023-12-08T21:57:51.775Z,74.50
2023-12-08T22:00:20.784Z,53.13
2023-12-08T22:02:50.865Z,55.77
2023-12-08T22:05:19.775Z,60.23
2023-12-08T22:07:48.240Z,55.93
2023-12-08T22:10:17.005Z,63.47
2023-12-08T22:12:45.533Z,60.83
2023-12-08T22:15:14.138Z,67.23
2023-12-08T22:17:42.637Z,66.10
2023-12-08T22:20:13.208Z,66.77
2023-12-08T22:22:41.891Z,60.60
2023-12-08T22:25:12.829Z,71.90
2023-12-08T22:27:41.841Z,66.83
2023-12-08T22:30:11.375Z,72.47
2023-12-08T22:32:40.180Z,70.50
2023-12-08T22:35:09.372Z,74.90
2023-12-08T22:37:39.405Z,76.37
2023-12-08T22:40:09.435Z,70.77
2023-12-08T22:42:38.105Z,74.90
2023-12-08T22:45:07.891Z,70.67
2023-12-08T22:47:36.473Z,71.40
2023-12-08T22:50:05.853Z,70.63
2023-12-08T22:52:34.508Z,80.10
2023-12-08T22:55:04.507Z,73.33
2023-12-08T22:57:33.014Z,71.97
2023-12-08T23:00:01.722Z,71.90
2023-12-08T23:02:30.456Z,78.53
2023-12-08T23:04:59.094Z,78.07
2023-12-08T23:07:27.652Z,69.67
2023-12-08T23:09:56.481Z,72.80
2023-12-08T23:12:26.936Z,68.60
2023-12-08T23:14:55.754Z,78.47
2023-12-08T23:17:24.399Z,66.47
2023-12-08T23:19:53.052Z,69.33
2023-12-08T23:22:22.503Z,73.97
2023-12-08T23:24:50.123Z,73.67
2023-12-08T23:28:29.146Z,69.40
2023-12-08T23:31:02.936Z,69.73
2023-12-08T23:33:32.552Z,70.77
2023-12-08T23:36:01.321Z,65.20
2023-12-08T23:38:29.928Z,69.97
2023-12-08T23:40:58.480Z,69.40
2023-12-08T23:43:26.981Z,66.17
2023-12-08T23:45:55.669Z,71.60
2023-12-08T23:48:25.720Z,62.00
2023-12-08T23:50:54.451Z,63.57
2023-12-08T23:53:23.276Z,57.13
2023-12-08T23:55:52.365Z,56.83
2023-12-08T23:58:20.940Z,61.57
